sensor_id;sensor_type;location;lat;lon;timestamp;P1;durP1;ratioP1;P2;durP2;ratioP2
24159;SDS011;62385;41.594;23.808;2023-02-23T00:00:28;4.67;;;1.83;;
24159;SDS011;62385;41.594;23.808;2023-02-23T00:02:57;1.70;;;1.17;;
24159;SDS011;62385;41.594;23.808;2023-02-23T00:05:25;3.13;;;2.13;;
24159;SDS011;62385;41.594;23.808;2023-02-23T00:07:55;0.40;;;0.30;;
24159;SDS011;62385;41.594;23.808;2023-02-23T00:10:21;7.23;;;1.67;;
24159;SDS011;62385;41.594;23.808;2023-02-23T00:12:57;1.33;;;1.13;;
24159;SDS011;62385;41.594;23.808;2023-02-23T00:15:24;5.37;;;1.00;;
24159;SDS011;62385;41.594;23.808;2023-02-23T00:17:54;2.50;;;1.40;;
24159;SDS011;62385;41.594;23.808;2023-02-23T00:20:21;3.93;;;2.10;;
24159;SDS011;62385;41.594;23.808;2023-02-23T00:22:53;0.67;;;0.53;;
24159;SDS011;62385;41.594;23.808;2023-02-23T00:25:20;1.43;;;0.87;;
24159;SDS011;62385;41.594;23.808;2023-02-23T00:27:46;9.40;;;1.80;;
24159;SDS011;62385;41.594;23.808;2023-02-23T00:30:13;6.57;;;1.33;;
24159;SDS011;62385;41.594;23.808;2023-02-23T00:32:40;1.00;;;0.70;;
24159;SDS011;62385;41.594;23.808;2023-02-23T00:35:06;1.80;;;0.87;;
24159;SDS011;62385;41.594;23.808;2023-02-23T00:37:48;1.57;;;1.30;;
24159;SDS011;62385;41.594;23.808;2023-02-23T00:40:14;1.00;;;1.00;;
24159;SDS011;62385;41.594;23.808;2023-02-23T00:42:43;2.43;;;1.67;;
24159;SDS011;62385;41.594;23.808;2023-02-23T00:45:09;1.33;;;1.07;;
24159;SDS011;62385;41.594;23.808;2023-02-23T00:47:40;2.20;;;1.60;;
24159;SDS011;62385;41.594;23.808;2023-02-23T00:50:12;1.53;;;1.43;;
24159;SDS011;62385;41.594;23.808;2023-02-23T00:52:39;1.60;;;1.27;;
24159;SDS011;62385;41.594;23.808;2023-02-23T00:55:10;1.97;;;0.80;;
24159;SDS011;62385;41.594;23.808;2023-02-23T00:57:38;3.67;;;1.03;;
24159;SDS011;62385;41.594;23.808;2023-02-23T01:00:04;3.00;;;2.03;;
24159;SDS011;62385;41.594;23.808;2023-02-23T01:02:41;0.40;;;0.40;;
24159;SDS011;62385;41.594;23.808;2023-02-23T01:05:08;1.50;;;1.33;;
24159;SDS011;62385;41.594;23.808;2023-02-23T01:07:35;4.93;;;1.40;;
24159;SDS011;62385;41.594;23.808;2023-02-23T01:10:00;2.07;;;0.90;;
24159;SDS011;62385;41.594;23.808;2023-02-23T01:12:26;1.87;;;0.70;;
24159;SDS011;62385;41.594;23.808;2023-02-23T01:14:52;0.93;;;0.87;;
24159;SDS011;62385;41.594;23.808;2023-02-23T01:17:17;2.23;;;1.33;;
24159;SDS011;62385;41.594;23.808;2023-02-23T01:19:43;1.10;;;0.90;;
24159;SDS011;62385;41.594;23.808;2023-02-23T01:22:08;1.37;;;1.23;;
24159;SDS011;62385;41.594;23.808;2023-02-23T01:24:34;1.60;;;1.13;;
24159;SDS011;62385;41.594;23.808;2023-02-23T01:27:03;3.43;;;1.30;;
24159;SDS011;62385;41.594;23.808;2023-02-23T01:29:28;0.70;;;0.60;;
24159;SDS011;62385;41.594;23.808;2023-02-23T01:31:54;7.40;;;1.20;;
24159;SDS011;62385;41.594;23.808;2023-02-23T01:34:20;1.70;;;1.50;;
24159;SDS011;62385;41.594;23.808;2023-02-23T01:36:45;2.57;;;0.83;;
24159;SDS011;62385;41.594;23.808;2023-02-23T01:39:13;1.40;;;1.30;;
24159;SDS011;62385;41.594;23.808;2023-02-23T01:41:41;1.40;;;0.93;;
24159;SDS011;62385;41.594;23.808;2023-02-23T01:46:54;2.23;;;0.90;;
24159;SDS011;62385;41.594;23.808;2023-02-23T01:49:21;2.13;;;1.53;;
24159;SDS011;62385;41.594;23.808;2023-02-23T01:52:03;1.93;;;0.77;;
24159;SDS011;62385;41.594;23.808;2023-02-23T01:54:39;1.30;;;0.77;;
24159;SDS011;62385;41.594;23.808;2023-02-23T01:57:14;1.93;;;1.27;;
24159;SDS011;62385;41.594;23.808;2023-02-23T01:59:43;2.33;;;1.10;;
24159;SDS011;62385;41.594;23.808;2023-02-23T02:02:10;2.70;;;1.63;;
24159;SDS011;62385;41.594;23.808;2023-02-23T02:04:38;5.30;;;2.47;;
24159;SDS011;62385;41.594;23.808;2023-02-23T02:07:13;3.17;;;2.03;;
24159;SDS011;62385;41.594;23.808;2023-02-23T02:09:52;2.77;;;2.50;;
24159;SDS011;62385;41.594;23.808;2023-02-23T02:12:45;3.80;;;1.43;;
24159;SDS011;62385;41.594;23.808;2023-02-23T02:15:17;0.63;;;0.60;;
24159;SDS011;62385;41.594;23.808;2023-02-23T02:17:57;4.53;;;1.40;;
24159;SDS011;62385;41.594;23.808;2023-02-23T02:32:42;1.37;;;1.27;;
24159;SDS011;62385;41.594;23.808;2023-02-23T02:35:38;1.93;;;1.30;;
24159;SDS011;62385;41.594;23.808;2023-02-23T02:46:55;0.93;;;0.93;;
24159;SDS011;62385;41.594;23.808;2023-02-23T02:49:30;1.80;;;1.17;;
24159;SDS011;62385;41.594;23.808;2023-02-23T02:52:09;0.93;;;0.80;;
24159;SDS011;62385;41.594;23.808;2023-02-23T02:55:23;1.33;;;1.10;;
24159;SDS011;62385;41.594;23.808;2023-02-23T02:57:37;1.67;;;1.20;;
24159;SDS011;62385;41.594;23.808;2023-02-23T03:00:04;1.20;;;1.10;;
24159;SDS011;62385;41.594;23.808;2023-02-23T03:02:49;2.60;;;1.73;;
24159;SDS011;62385;41.594;23.808;2023-02-23T03:05:43;0.20;;;0.13;;
24159;SDS011;62385;41.594;23.808;2023-02-23T03:08:46;0.73;;;0.50;;
24159;SDS011;62385;41.594;23.808;2023-02-23T03:11:38;1.10;;;0.73;;
24159;SDS011;62385;41.594;23.808;2023-02-23T03:14:33;1.63;;;0.87;;
24159;SDS011;62385;41.594;23.808;2023-02-23T03:17:44;2.83;;;2.03;;
24159;SDS011;62385;41.594;23.808;2023-02-23T03:23:34;1.23;;;1.03;;
24159;SDS011;62385;41.594;23.808;2023-02-23T03:32:24;0.63;;;0.57;;
24159;SDS011;62385;41.594;23.808;2023-02-23T03:41:07;1.33;;;0.67;;
24159;SDS011;62385;41.594;23.808;2023-02-23T03:44:00;1.13;;;0.87;;
24159;SDS011;62385;41.594;23.808;2023-02-23T03:46:49;0.93;;;0.67;;
24159;SDS011;62385;41.594;23.808;2023-02-23T03:49:36;2.50;;;1.10;;
24159;SDS011;62385;41.594;23.808;2023-02-23T03:52:25;1.47;;;1.07;;
24159;SDS011;62385;41.594;23.808;2023-02-23T03:55:20;0.60;;;0.57;;
24159;SDS011;62385;41.594;23.808;2023-02-23T03:58:10;2.00;;;1.03;;
24159;SDS011;62385;41.594;23.808;2023-02-23T04:01:17;0.83;;;0.70;;
24159;SDS011;62385;41.594;23.808;2023-02-23T04:04:04;1.30;;;0.73;;
24159;SDS011;62385;41.594;23.808;2023-02-23T04:06:51;0.53;;;0.50;;
24159;SDS011;62385;41.594;23.808;2023-02-23T04:09:39;5.23;;;4.73;;
24159;SDS011;62385;41.594;23.808;2023-02-23T04:17:58;8.97;;;1.33;;
24159;SDS011;62385;41.594;23.808;2023-02-23T04:20:24;2.13;;;1.23;;
24159;SDS011;62385;41.594;23.808;2023-02-23T04:22:50;1.87;;;1.17;;
24159;SDS011;62385;41.594;23.808;2023-02-23T04:25:16;4.07;;;1.50;;
24159;SDS011;62385;41.594;23.808;2023-02-23T04:27:44;2.23;;;1.50;;
24159;SDS011;62385;41.594;23.808;2023-02-23T04:30:10;1.13;;;0.83;;
24159;SDS011;62385;41.594;23.808;2023-02-23T04:32:36;1.80;;;1.27;;
24159;SDS011;62385;41.594;23.808;2023-02-23T04:35:02;7.40;;;1.83;;
24159;SDS011;62385;41.594;23.808;2023-02-23T04:37:28;0.73;;;0.60;;
24159;SDS011;62385;41.594;23.808;2023-02-23T04:39:53;1.57;;;1.47;;
24159;SDS011;62385;41.594;23.808;2023-02-23T04:42:19;2.03;;;1.23;;
24159;SDS011;62385;41.594;23.808;2023-02-23T04:44:45;1.13;;;0.90;;
24159;SDS011;62385;41.594;23.808;2023-02-23T04:47:12;1.00;;;0.90;;
24159;SDS011;62385;41.594;23.808;2023-02-23T04:49:39;1.30;;;1.00;;
24159;SDS011;62385;41.594;23.808;2023-02-23T04:52:05;2.17;;;1.97;;
24159;SDS011;62385;41.594;23.808;2023-02-23T04:54:31;1.87;;;1.47;;
24159;SDS011;62385;41.594;23.808;2023-02-23T04:56:57;2.17;;;1.73;;
24159;SDS011;62385;41.594;23.808;2023-02-23T04:59:22;1.33;;;1.23;;
24159;SDS011;62385;41.594;23.808;2023-02-23T05:01:48;3.53;;;3.10;;
24159;SDS011;62385;41.594;23.808;2023-02-23T05:04:14;2.23;;;1.30;;
24159;SDS011;62385;41.594;23.808;2023-02-23T05:06:39;2.43;;;2.13;;
24159;SDS011;62385;41.594;23.808;2023-02-23T05:09:06;2.47;;;2.00;;
24159;SDS011;62385;41.594;23.808;2023-02-23T05:11:32;5.00;;;3.17;;
24159;SDS011;62385;41.594;23.808;2023-02-23T05:13:58;1.17;;;1.03;;
24159;SDS011;62385;41.594;23.808;2023-02-23T05:16:24;1.33;;;1.23;;
24159;SDS011;62385;41.594;23.808;2023-02-23T05:18:50;1.80;;;1.70;;
24159;SDS011;62385;41.594;23.808;2023-02-23T05:21:16;4.17;;;2.63;;
24159;SDS011;62385;41.594;23.808;2023-02-23T05:23:41;8.23;;;3.23;;
24159;SDS011;62385;41.594;23.808;2023-02-23T05:26:08;3.10;;;2.70;;
24159;SDS011;62385;41.594;23.808;2023-02-23T05:28:35;3.00;;;2.73;;
24159;SDS011;62385;41.594;23.808;2023-02-23T05:31:02;3.60;;;2.23;;
24159;SDS011;62385;41.594;23.808;2023-02-23T05:33:29;4.00;;;3.40;;
24159;SDS011;62385;41.594;23.808;2023-02-23T05:35:56;14.50;;;8.87;;
24159;SDS011;62385;41.594;23.808;2023-02-23T05:38:22;5.90;;;3.43;;
24159;SDS011;62385;41.594;23.808;2023-02-23T05:40:48;3.20;;;2.90;;
24159;SDS011;62385;41.594;23.808;2023-02-23T05:43:13;13.43;;;8.20;;
24159;SDS011;62385;41.594;23.808;2023-02-23T05:45:40;9.47;;;5.50;;
24159;SDS011;62385;41.594;23.808;2023-02-23T05:48:07;8.37;;;5.40;;
24159;SDS011;62385;41.594;23.808;2023-02-23T05:50:33;6.30;;;5.63;;
24159;SDS011;62385;41.594;23.808;2023-02-23T05:52:59;12.50;;;6.23;;
24159;SDS011;62385;41.594;23.808;2023-02-23T05:55:24;6.30;;;5.57;;
24159;SDS011;62385;41.594;23.808;2023-02-23T05:57:50;6.20;;;5.03;;
24159;SDS011;62385;41.594;23.808;2023-02-23T06:00:16;7.67;;;5.03;;
24159;SDS011;62385;41.594;23.808;2023-02-23T06:02:42;49.57;;;7.33;;
24159;SDS011;62385;41.594;23.808;2023-02-23T06:05:09;6.70;;;4.57;;
24159;SDS011;62385;41.594;23.808;2023-02-23T06:07:37;6.10;;;4.73;;
24159;SDS011;62385;41.594;23.808;2023-02-23T06:10:03;10.70;;;6.90;;
24159;SDS011;62385;41.594;23.808;2023-02-23T06:12:29;11.03;;;6.13;;
24159;SDS011;62385;41.594;23.808;2023-02-23T06:14:55;4.23;;;3.83;;
24159;SDS011;62385;41.594;23.808;2023-02-23T06:17:21;5.60;;;4.37;;
24159;SDS011;62385;41.594;23.808;2023-02-23T06:19:47;9.73;;;3.63;;
24159;SDS011;62385;41.594;23.808;2023-02-23T06:22:13;7.03;;;3.20;;
24159;SDS011;62385;41.594;23.808;2023-02-23T06:24:39;12.43;;;2.97;;
24159;SDS011;62385;41.594;23.808;2023-02-23T06:27:05;6.80;;;5.03;;
24159;SDS011;62385;41.594;23.808;2023-02-23T06:29:31;5.83;;;4.83;;
24159;SDS011;62385;41.594;23.808;2023-02-23T06:31:57;10.97;;;4.87;;
24159;SDS011;62385;41.594;23.808;2023-02-23T06:34:24;6.50;;;5.43;;
24159;SDS011;62385;41.594;23.808;2023-02-23T06:36:49;3.87;;;3.57;;
24159;SDS011;62385;41.594;23.808;2023-02-23T06:39:16;5.50;;;4.97;;
24159;SDS011;62385;41.594;23.808;2023-02-23T06:41:42;7.10;;;4.70;;
24159;SDS011;62385;41.594;23.808;2023-02-23T06:44:08;4.47;;;4.03;;
24159;SDS011;62385;41.594;23.808;2023-02-23T06:46:33;7.73;;;3.37;;
24159;SDS011;62385;41.594;23.808;2023-02-23T06:48:59;4.50;;;4.10;;
24159;SDS011;62385;41.594;23.808;2023-02-23T06:51:25;3.33;;;2.60;;
24159;SDS011;62385;41.594;23.808;2023-02-23T06:53:50;5.83;;;3.50;;
24159;SDS011;62385;41.594;23.808;2023-02-23T06:56:19;4.80;;;2.50;;
24159;SDS011;62385;41.594;23.808;2023-02-23T06:58:45;9.70;;;3.47;;
24159;SDS011;62385;41.594;23.808;2023-02-23T07:01:12;3.57;;;1.87;;
24159;SDS011;62385;41.594;23.808;2023-02-23T07:03:38;6.50;;;2.70;;
24159;SDS011;62385;41.594;23.808;2023-02-23T07:06:04;2.27;;;1.60;;
24159;SDS011;62385;41.594;23.808;2023-02-23T07:08:30;8.53;;;5.90;;
24159;SDS011;62385;41.594;23.808;2023-02-23T07:11:03;5.93;;;3.53;;
24159;SDS011;62385;41.594;23.808;2023-02-23T07:13:40;6.23;;;3.70;;
24159;SDS011;62385;41.594;23.808;2023-02-23T07:16:06;6.37;;;4.77;;
24159;SDS011;62385;41.594;23.808;2023-02-23T07:18:33;9.43;;;3.33;;
24159;SDS011;62385;41.594;23.808;2023-02-23T07:20:58;8.87;;;4.67;;
24159;SDS011;62385;41.594;23.808;2023-02-23T07:23:24;9.83;;;3.77;;
24159;SDS011;62385;41.594;23.808;2023-02-23T07:25:50;5.00;;;3.63;;
24159;SDS011;62385;41.594;23.808;2023-02-23T07:28:17;5.57;;;3.97;;
24159;SDS011;62385;41.594;23.808;2023-02-23T07:30:43;7.33;;;4.37;;
24159;SDS011;62385;41.594;23.808;2023-02-23T07:33:09;11.13;;;6.00;;
24159;SDS011;62385;41.594;23.808;2023-02-23T07:35:35;9.93;;;3.70;;
24159;SDS011;62385;41.594;23.808;2023-02-23T07:38:01;6.80;;;4.17;;
24159;SDS011;62385;41.594;23.808;2023-02-23T07:40:28;5.93;;;3.77;;
24159;SDS011;62385;41.594;23.808;2023-02-23T07:42:55;14.53;;;6.00;;
24159;SDS011;62385;41.594;23.808;2023-02-23T07:45:21;7.13;;;4.33;;
24159;SDS011;62385;41.594;23.808;2023-02-23T07:47:49;6.60;;;3.97;;
24159;SDS011;62385;41.594;23.808;2023-02-23T07:50:14;7.40;;;4.23;;
24159;SDS011;62385;41.594;23.808;2023-02-23T07:52:41;6.17;;;3.37;;
24159;SDS011;62385;41.594;23.808;2023-02-23T07:55:08;5.57;;;3.10;;
24159;SDS011;62385;41.594;23.808;2023-02-23T07:57:36;3.40;;;2.67;;
24159;SDS011;62385;41.594;23.808;2023-02-23T08:00:03;1.87;;;1.77;;
24159;SDS011;62385;41.594;23.808;2023-02-23T08:02:37;4.33;;;2.73;;
24159;SDS011;62385;41.594;23.808;2023-02-23T08:05:03;2.83;;;2.23;;
24159;SDS011;62385;41.594;23.808;2023-02-23T08:07:30;2.73;;;1.97;;
24159;SDS011;62385;41.594;23.808;2023-02-23T08:09:57;1.33;;;1.10;;
24159;SDS011;62385;41.594;23.808;2023-02-23T08:12:23;4.23;;;3.57;;
24159;SDS011;62385;41.594;23.808;2023-02-23T08:14:50;4.00;;;2.47;;
24159;SDS011;62385;41.594;23.808;2023-02-23T08:17:18;6.27;;;2.77;;
24159;SDS011;62385;41.594;23.808;2023-02-23T08:19:43;7.00;;;4.40;;
24159;SDS011;62385;41.594;23.808;2023-02-23T08:22:09;10.73;;;4.40;;
24159;SDS011;62385;41.594;23.808;2023-02-23T08:24:35;7.73;;;5.27;;
24159;SDS011;62385;41.594;23.808;2023-02-23T08:27:01;6.63;;;3.07;;
24159;SDS011;62385;41.594;23.808;2023-02-23T08:29:28;5.50;;;4.17;;
24159;SDS011;62385;41.594;23.808;2023-02-23T08:31:53;3.80;;;3.00;;
24159;SDS011;62385;41.594;23.808;2023-02-23T08:34:21;7.67;;;1.87;;
24159;SDS011;62385;41.594;23.808;2023-02-23T08:36:47;8.33;;;2.50;;
24159;SDS011;62385;41.594;23.808;2023-02-23T08:39:14;3.00;;;2.43;;
24159;SDS011;62385;41.594;23.808;2023-02-23T08:41:40;5.00;;;1.73;;
24159;SDS011;62385;41.594;23.808;2023-02-23T08:44:06;4.83;;;2.13;;
24159;SDS011;62385;41.594;23.808;2023-02-23T08:46:32;3.13;;;1.20;;
24159;SDS011;62385;41.594;23.808;2023-02-23T08:48:58;2.40;;;1.47;;
24159;SDS011;62385;41.594;23.808;2023-02-23T08:51:24;3.07;;;2.07;;
24159;SDS011;62385;41.594;23.808;2023-02-23T08:53:49;1.93;;;1.57;;
24159;SDS011;62385;41.594;23.808;2023-02-23T08:56:15;5.63;;;1.90;;
24159;SDS011;62385;41.594;23.808;2023-02-23T08:58:41;0.83;;;0.60;;
24159;SDS011;62385;41.594;23.808;2023-02-23T09:01:12;1.57;;;1.07;;
24159;SDS011;62385;41.594;23.808;2023-02-23T09:03:41;2.03;;;1.50;;
24159;SDS011;62385;41.594;23.808;2023-02-23T09:06:09;2.83;;;1.57;;
24159;SDS011;62385;41.594;23.808;2023-02-23T09:08:38;0.97;;;0.80;;
24159;SDS011;62385;41.594;23.808;2023-02-23T09:11:04;1.70;;;1.27;;
24159;SDS011;62385;41.594;23.808;2023-02-23T09:13:30;1.33;;;1.00;;
24159;SDS011;62385;41.594;23.808;2023-02-23T09:15:56;4.17;;;2.33;;
24159;SDS011;62385;41.594;23.808;2023-02-23T09:18:21;6.33;;;2.13;;
24159;SDS011;62385;41.594;23.808;2023-02-23T09:20:48;5.50;;;2.53;;
24159;SDS011;62385;41.594;23.808;2023-02-23T09:23:14;2.67;;;1.43;;
24159;SDS011;62385;41.594;23.808;2023-02-23T09:25:40;2.43;;;1.70;;
24159;SDS011;62385;41.594;23.808;2023-02-23T09:28:10;4.37;;;2.53;;
24159;SDS011;62385;41.594;23.808;2023-02-23T09:30:38;13.40;;;2.37;;
24159;SDS011;62385;41.594;23.808;2023-02-23T09:33:06;1.73;;;1.40;;
24159;SDS011;62385;41.594;23.808;2023-02-23T09:35:32;3.10;;;1.63;;
24159;SDS011;62385;41.594;23.808;2023-02-23T09:37:58;4.40;;;2.07;;
24159;SDS011;62385;41.594;23.808;2023-02-23T09:40:28;0.88;;;0.68;;
24159;SDS011;62385;41.594;23.808;2023-02-23T09:43:02;4.70;;;1.85;;
24159;SDS011;62385;41.594;23.808;2023-02-23T09:45:47;1.35;;;1.23;;
24159;SDS011;62385;41.594;23.808;2023-02-23T09:48:39;2.20;;;1.47;;
24159;SDS011;62385;41.594;23.808;2023-02-23T09:51:06;1.55;;;1.05;;
24159;SDS011;62385;41.594;23.808;2023-02-23T09:53:37;3.05;;;1.38;;
24159;SDS011;62385;41.594;23.808;2023-02-23T09:56:17;2.75;;;0.80;;
24159;SDS011;62385;41.594;23.808;2023-02-23T09:58:49;2.75;;;1.17;;
24159;SDS011;62385;41.594;23.808;2023-02-23T10:01:39;1.00;;;0.85;;
24159;SDS011;62385;41.594;23.808;2023-02-23T10:06:51;1.65;;;0.93;;
24159;SDS011;62385;41.594;23.808;2023-02-23T10:09:27;1.95;;;1.08;;
24159;SDS011;62385;41.594;23.808;2023-02-23T10:23:14;0.80;;;0.50;;
24159;SDS011;62385;41.594;23.808;2023-02-23T10:25:45;1.77;;;1.55;;
24159;SDS011;62385;41.594;23.808;2023-02-23T10:28:14;7.63;;;1.10;;
24159;SDS011;62385;41.594;23.808;2023-02-23T10:30:45;8.88;;;1.63;;
24159;SDS011;62385;41.594;23.808;2023-02-23T10:35:43;3.47;;;2.05;;
24159;SDS011;62385;41.594;23.808;2023-02-23T10:38:14;4.15;;;1.75;;
24159;SDS011;62385;41.594;23.808;2023-02-23T10:40:42;2.03;;;1.75;;
24159;SDS011;62385;41.594;23.808;2023-02-23T10:43:11;3.55;;;1.63;;
24159;SDS011;62385;41.594;23.808;2023-02-23T10:45:45;1.83;;;1.23;;
24159;SDS011;62385;41.594;23.808;2023-02-23T10:48:17;2.05;;;1.58;;
24159;SDS011;62385;41.594;23.808;2023-02-23T10:50:46;3.45;;;1.63;;
24159;SDS011;62385;41.594;23.808;2023-02-23T10:56:00;1.85;;;1.13;;
24159;SDS011;62385;41.594;23.808;2023-02-23T10:58:29;2.65;;;1.20;;
24159;SDS011;62385;41.594;23.808;2023-02-23T11:00:59;2.47;;;1.15;;
24159;SDS011;62385;41.594;23.808;2023-02-23T11:03:32;1.40;;;0.80;;
24159;SDS011;62385;41.594;23.808;2023-02-23T11:06:43;4.00;;;1.55;;
24159;SDS011;62385;41.594;23.808;2023-02-23T11:11:55;2.40;;;1.05;;
24159;SDS011;62385;41.594;23.808;2023-02-23T11:14:40;1.55;;;1.40;;
24159;SDS011;62385;41.594;23.808;2023-02-23T11:17:09;1.92;;;1.52;;
24159;SDS011;62385;41.594;23.808;2023-02-23T11:20:02;4.15;;;0.95;;
24159;SDS011;62385;41.594;23.808;2023-02-23T11:22:45;10.18;;;1.30;;
24159;SDS011;62385;41.594;23.808;2023-02-23T11:25:15;2.45;;;1.25;;
24159;SDS011;62385;41.594;23.808;2023-02-23T11:28:00;1.60;;;0.80;;
24159;SDS011;62385;41.594;23.808;2023-02-23T11:30:30;2.47;;;1.25;;
24159;SDS011;62385;41.594;23.808;2023-02-23T11:33:01;1.77;;;0.82;;
24159;SDS011;62385;41.594;23.808;2023-02-23T11:35:35;2.05;;;1.02;;
24159;SDS011;62385;41.594;23.808;2023-02-23T11:38:15;1.42;;;0.75;;
24159;SDS011;62385;41.594;23.808;2023-02-23T11:41:16;2.03;;;1.20;;
24159;SDS011;62385;41.594;23.808;2023-02-23T11:43:50;1.15;;;0.77;;
24159;SDS011;62385;41.594;23.808;2023-02-23T11:46:20;1.65;;;0.75;;
24159;SDS011;62385;41.594;23.808;2023-02-23T11:48:48;1.40;;;0.90;;
24159;SDS011;62385;41.594;23.808;2023-02-23T11:51:31;3.20;;;1.42;;
24159;SDS011;62385;41.594;23.808;2023-02-23T11:54:02;1.80;;;0.88;;
24159;SDS011;62385;41.594;23.808;2023-02-23T11:56:30;3.75;;;1.45;;
24159;SDS011;62385;41.594;23.808;2023-02-23T11:59:02;2.22;;;1.35;;
24159;SDS011;62385;41.594;23.808;2023-02-23T12:01:48;1.83;;;0.90;;
24159;SDS011;62385;41.594;23.808;2023-02-23T12:04:24;1.38;;;0.95;;
24159;SDS011;62385;41.594;23.808;2023-02-23T12:06:55;2.60;;;1.02;;
24159;SDS011;62385;41.594;23.808;2023-02-23T12:09:49;1.00;;;0.70;;
24159;SDS011;62385;41.594;23.808;2023-02-23T12:12:23;1.52;;;0.88;;
24159;SDS011;62385;41.594;23.808;2023-02-23T12:15:05;0.80;;;0.80;;
24159;SDS011;62385;41.594;23.808;2023-02-23T12:17:39;0.80;;;0.80;;
24159;SDS011;62385;41.594;23.808;2023-02-23T12:20:20;2.40;;;1.17;;
24159;SDS011;62385;41.594;23.808;2023-02-23T12:22:56;0.82;;;0.65;;
24159;SDS011;62385;41.594;23.808;2023-02-23T12:30:59;2.72;;;1.23;;
24159;SDS011;62385;41.594;23.808;2023-02-23T12:36:52;2.20;;;1.45;;
24159;SDS011;62385;41.594;23.808;2023-02-23T12:44:55;2.75;;;1.55;;
24159;SDS011;62385;41.594;23.808;2023-02-23T12:50:14;1.35;;;0.90;;
24159;SDS011;62385;41.594;23.808;2023-02-23T12:52:52;1.92;;;1.20;;
24159;SDS011;62385;41.594;23.808;2023-02-23T12:55:29;1.90;;;1.70;;
24159;SDS011;62385;41.594;23.808;2023-02-23T12:58:10;1.27;;;0.88;;
24159;SDS011;62385;41.594;23.808;2023-02-23T13:00:54;1.73;;;1.38;;
24159;SDS011;62385;41.594;23.808;2023-02-23T13:06:17;1.67;;;0.70;;
24159;SDS011;62385;41.594;23.808;2023-02-23T13:09:01;2.22;;;1.15;;
24159;SDS011;62385;41.594;23.808;2023-02-23T13:16:50;1.85;;;1.30;;
24159;SDS011;62385;41.594;23.808;2023-02-23T13:22:10;0.85;;;0.77;;
24159;SDS011;62385;41.594;23.808;2023-02-23T13:27:54;1.50;;;1.33;;
24159;SDS011;62385;41.594;23.808;2023-02-23T13:30:24;1.83;;;1.17;;
24159;SDS011;62385;41.594;23.808;2023-02-23T13:32:50;1.58;;;1.05;;
24159;SDS011;62385;41.594;23.808;2023-02-23T13:35:17;1.70;;;1.30;;
24159;SDS011;62385;41.594;23.808;2023-02-23T13:37:49;2.40;;;1.42;;
24159;SDS011;62385;41.594;23.808;2023-02-23T13:40:30;2.53;;;1.70;;
24159;SDS011;62385;41.594;23.808;2023-02-23T13:43:12;2.55;;;1.17;;
24159;SDS011;62385;41.594;23.808;2023-02-23T13:45:49;1.70;;;1.33;;
24159;SDS011;62385;41.594;23.808;2023-02-23T13:53:58;1.55;;;1.35;;
24159;SDS011;62385;41.594;23.808;2023-02-23T13:56:28;1.70;;;1.15;;
24159;SDS011;62385;41.594;23.808;2023-02-23T13:58:59;2.83;;;1.10;;
24159;SDS011;62385;41.594;23.808;2023-02-23T14:01:28;1.40;;;1.17;;
24159;SDS011;62385;41.594;23.808;2023-02-23T14:04:01;1.50;;;0.95;;
24159;SDS011;62385;41.594;23.808;2023-02-23T14:06:30;3.33;;;1.80;;
24159;SDS011;62385;41.594;23.808;2023-02-23T14:08:59;1.88;;;1.33;;
24159;SDS011;62385;41.594;23.808;2023-02-23T14:14:01;2.78;;;1.88;;
24159;SDS011;62385;41.594;23.808;2023-02-23T14:16:29;4.47;;;2.45;;
24159;SDS011;62385;41.594;23.808;2023-02-23T14:24:24;3.42;;;1.80;;
24159;SDS011;62385;41.594;23.808;2023-02-23T14:29:37;1.67;;;1.35;;
24159;SDS011;62385;41.594;23.808;2023-02-23T14:34:58;2.10;;;1.42;;
24159;SDS011;62385;41.594;23.808;2023-02-23T14:42:49;3.92;;;2.50;;
24159;SDS011;62385;41.594;23.808;2023-02-23T14:47:44;2.17;;;1.77;;
24159;SDS011;62385;41.594;23.808;2023-02-23T14:50:23;4.10;;;2.10;;
24159;SDS011;62385;41.594;23.808;2023-02-23T14:52:51;5.13;;;3.20;;
24159;SDS011;62385;41.594;23.808;2023-02-23T14:55:26;7.10;;;4.85;;
24159;SDS011;62385;41.594;23.808;2023-02-23T14:57:54;8.68;;;4.75;;
24159;SDS011;62385;41.594;23.808;2023-02-23T15:02:59;9.98;;;7.63;;
24159;SDS011;62385;41.594;23.808;2023-02-23T15:05:33;3.47;;;3.05;;
24159;SDS011;62385;41.594;23.808;2023-02-23T15:08:06;6.97;;;3.88;;
24159;SDS011;62385;41.594;23.808;2023-02-23T15:10:46;7.57;;;4.68;;
24159;SDS011;62385;41.594;23.808;2023-02-23T15:16:21;9.63;;;5.25;;
24159;SDS011;62385;41.594;23.808;2023-02-23T15:19:01;6.85;;;4.53;;
24159;SDS011;62385;41.594;23.808;2023-02-23T15:21:29;7.53;;;4.40;;
24159;SDS011;62385;41.594;23.808;2023-02-23T15:24:03;5.15;;;3.67;;
24159;SDS011;62385;41.594;23.808;2023-02-23T15:26:33;5.85;;;3.60;;
24159;SDS011;62385;41.594;23.808;2023-02-23T15:31:37;5.07;;;3.03;;
24159;SDS011;62385;41.594;23.808;2023-02-23T15:34:15;15.93;;;6.50;;
24159;SDS011;62385;41.594;23.808;2023-02-23T15:36:55;10.20;;;6.28;;
24159;SDS011;62385;41.594;23.808;2023-02-23T15:39:33;13.25;;;5.07;;
24159;SDS011;62385;41.594;23.808;2023-02-23T15:42:03;6.95;;;4.05;;
24159;SDS011;62385;41.594;23.808;2023-02-23T15:44:30;6.60;;;3.70;;
24159;SDS011;62385;41.594;23.808;2023-02-23T15:47:03;11.38;;;5.35;;
24159;SDS011;62385;41.594;23.808;2023-02-23T15:49:31;8.57;;;5.40;;
24159;SDS011;62385;41.594;23.808;2023-02-23T15:52:02;20.13;;;5.43;;
24159;SDS011;62385;41.594;23.808;2023-02-23T15:54:33;9.23;;;5.00;;
24159;SDS011;62385;41.594;23.808;2023-02-23T15:57:06;9.55;;;5.32;;
24159;SDS011;62385;41.594;23.808;2023-02-23T15:59:44;8.82;;;5.07;;
24159;SDS011;62385;41.594;23.808;2023-02-23T16:02:13;7.25;;;4.15;;
24159;SDS011;62385;41.594;23.808;2023-02-23T16:04:44;7.03;;;3.90;;
24159;SDS011;62385;41.594;23.808;2023-02-23T16:07:40;18.52;;;6.68;;
24159;SDS011;62385;41.594;23.808;2023-02-23T16:10:42;8.75;;;5.38;;
24159;SDS011;62385;41.594;23.808;2023-02-23T16:13:09;10.10;;;4.40;;
24159;SDS011;62385;41.594;23.808;2023-02-23T16:15:37;12.90;;;4.47;;
24159;SDS011;62385;41.594;23.808;2023-02-23T16:18:05;10.23;;;4.95;;
24159;SDS011;62385;41.594;23.808;2023-02-23T16:20:40;8.75;;;4.22;;
24159;SDS011;62385;41.594;23.808;2023-02-23T16:23:17;9.32;;;3.55;;
24159;SDS011;62385;41.594;23.808;2023-02-23T16:26:05;2.97;;;1.75;;
24159;SDS011;62385;41.594;23.808;2023-02-23T16:28:33;4.35;;;3.63;;
24159;SDS011;62385;41.594;23.808;2023-02-23T16:31:02;5.60;;;3.70;;
24159;SDS011;62385;41.594;23.808;2023-02-23T16:33:30;3.08;;;2.50;;
24159;SDS011;62385;41.594;23.808;2023-02-23T16:38:39;2.78;;;1.95;;
24159;SDS011;62385;41.594;23.808;2023-02-23T16:41:15;3.53;;;2.58;;
24159;SDS011;62385;41.594;23.808;2023-02-23T16:43:43;5.55;;;2.97;;
24159;SDS011;62385;41.594;23.808;2023-02-23T16:46:11;10.23;;;2.25;;
24159;SDS011;62385;41.594;23.808;2023-02-23T16:48:37;3.30;;;3.00;;
24159;SDS011;62385;41.594;23.808;2023-02-23T16:51:02;2.70;;;2.10;;
24159;SDS011;62385;41.594;23.808;2023-02-23T16:53:33;3.05;;;2.25;;
24159;SDS011;62385;41.594;23.808;2023-02-23T16:55:58;2.25;;;1.67;;
24159;SDS011;62385;41.594;23.808;2023-02-23T16:58:25;4.15;;;2.65;;
24159;SDS011;62385;41.594;23.808;2023-02-23T17:00:54;5.50;;;2.13;;
24159;SDS011;62385;41.594;23.808;2023-02-23T17:03:24;4.32;;;2.30;;
24159;SDS011;62385;41.594;23.808;2023-02-23T17:05:52;8.02;;;3.13;;
24159;SDS011;62385;41.594;23.808;2023-02-23T17:08:18;11.43;;;2.40;;
24159;SDS011;62385;41.594;23.808;2023-02-23T17:10:45;4.50;;;2.75;;
24159;SDS011;62385;41.594;23.808;2023-02-23T17:13:19;11.50;;;3.22;;